sensor_id;sensor_type;location;lat;lon;timestamp;P1;durP1;ratioP1;P2;durP2;ratioP2
10586;SDS011;5341;47.606;7.576;2023-05-19T00:01:55;5.22;;;2.60;;
10586;SDS011;5341;47.606;7.576;2023-05-19T00:04:25;3.50;;;2.50;;
10586;SDS011;5341;47.606;7.576;2023-05-19T00:06:58;5.55;;;2.88;;
10586;SDS011;5341;47.606;7.576;2023-05-19T00:09:27;6.35;;;2.70;;
10586;SDS011;5341;47.606;7.576;2023-05-19T00:11:59;8.02;;;2.63;;
10586;SDS011;5341;47.606;7.576;2023-05-19T00:14:27;3.47;;;2.50;;
10586;SDS011;5341;47.606;7.576;2023-05-19T00:16:55;3.85;;;2.78;;
10586;SDS011;5341;47.606;7.576;2023-05-19T00:19:23;3.78;;;2.47;;
10586;SDS011;5341;47.606;7.576;2023-05-19T00:21:51;5.25;;;2.70;;
10586;SDS011;5341;47.606;7.576;2023-05-19T00:24:20;3.15;;;2.47;;
10586;SDS011;5341;47.606;7.576;2023-05-19T00:26:48;3.97;;;2.40;;
10586;SDS011;5341;47.606;7.576;2023-05-19T00:29:18;3.60;;;2.58;;
10586;SDS011;5341;47.606;7.576;2023-05-19T00:31:46;4.35;;;2.53;;
10586;SDS011;5341;47.606;7.576;2023-05-19T00:34:14;3.13;;;2.30;;
10586;SDS011;5341;47.606;7.576;2023-05-19T00:36:41;4.50;;;2.63;;
10586;SDS011;5341;47.606;7.576;2023-05-19T00:39:12;5.75;;;2.30;;
10586;SDS011;5341;47.606;7.576;2023-05-19T00:41:42;3.03;;;2.47;;
10586;SDS011;5341;47.606;7.576;2023-05-19T00:44:10;4.47;;;2.65;;
10586;SDS011;5341;47.606;7.576;2023-05-19T00:46:38;4.00;;;2.35;;
10586;SDS011;5341;47.606;7.576;2023-05-19T00:49:06;3.60;;;2.40;;
10586;SDS011;5341;47.606;7.576;2023-05-19T00:51:34;2.72;;;2.20;;
10586;SDS011;5341;47.606;7.576;2023-05-19T00:54:03;3.95;;;2.47;;
10586;SDS011;5341;47.606;7.576;2023-05-19T00:56:31;3.08;;;2.45;;
10586;SDS011;5341;47.606;7.576;2023-05-19T00:59:00;3.00;;;2.00;;
10586;SDS011;5341;47.606;7.576;2023-05-19T01:01:32;5.28;;;2.47;;
10586;SDS011;5341;47.606;7.576;2023-05-19T01:03:59;3.65;;;2.10;;
10586;SDS011;5341;47.606;7.576;2023-05-19T01:06:28;3.88;;;2.28;;
10586;SDS011;5341;47.606;7.576;2023-05-19T01:08:58;3.83;;;2.67;;
10586;SDS011;5341;47.606;7.576;2023-05-19T01:11:26;2.97;;;2.22;;
10586;SDS011;5341;47.606;7.576;2023-05-19T01:13:53;3.42;;;2.42;;
10586;SDS011;5341;47.606;7.576;2023-05-19T01:16:24;3.53;;;2.40;;
10586;SDS011;5341;47.606;7.576;2023-05-19T01:18:59;4.03;;;2.40;;
10586;SDS011;5341;47.606;7.576;2023-05-19T01:21:47;3.60;;;2.40;;
10586;SDS011;5341;47.606;7.576;2023-05-19T01:25:00;4.10;;;2.50;;
10586;SDS011;5341;47.606;7.576;2023-05-19T01:27:59;3.78;;;2.50;;
10586;SDS011;5341;47.606;7.576;2023-05-19T01:30:53;3.40;;;2.17;;
10586;SDS011;5341;47.606;7.576;2023-05-19T01:33:22;5.28;;;2.50;;
10586;SDS011;5341;47.606;7.576;2023-05-19T01:35:51;5.53;;;2.42;;
10586;SDS011;5341;47.606;7.576;2023-05-19T01:38:22;3.53;;;2.33;;
10586;SDS011;5341;47.606;7.576;2023-05-19T01:40:51;3.28;;;2.30;;
10586;SDS011;5341;47.606;7.576;2023-05-19T01:43:24;3.33;;;2.30;;
10586;SDS011;5341;47.606;7.576;2023-05-19T01:45:53;3.88;;;2.25;;
10586;SDS011;5341;47.606;7.576;2023-05-19T01:48:23;4.25;;;2.72;;
10586;SDS011;5341;47.606;7.576;2023-05-19T01:50:51;3.20;;;2.15;;
10586;SDS011;5341;47.606;7.576;2023-05-19T01:53:21;4.68;;;2.40;;
10586;SDS011;5341;47.606;7.576;2023-05-19T01:55:49;3.95;;;2.50;;
10586;SDS011;5341;47.606;7.576;2023-05-19T01:58:20;3.25;;;2.50;;
10586;SDS011;5341;47.606;7.576;2023-05-19T02:00:55;3.47;;;2.30;;
10586;SDS011;5341;47.606;7.576;2023-05-19T02:03:31;3.45;;;2.35;;
10586;SDS011;5341;47.606;7.576;2023-05-19T02:06:14;4.45;;;2.30;;
10586;SDS011;5341;47.606;7.576;2023-05-19T02:08:50;3.20;;;2.30;;
10586;SDS011;5341;47.606;7.576;2023-05-19T02:11:26;3.72;;;2.33;;
10586;SDS011;5341;47.606;7.576;2023-05-19T02:14:02;3.00;;;2.35;;
10586;SDS011;5341;47.606;7.576;2023-05-19T02:16:35;5.13;;;2.45;;
10586;SDS011;5341;47.606;7.576;2023-05-19T02:19:04;4.57;;;2.65;;
10586;SDS011;5341;47.606;7.576;2023-05-19T02:21:32;3.28;;;2.50;;
10586;SDS011;5341;47.606;7.576;2023-05-19T02:23:59;4.38;;;2.63;;
10586;SDS011;5341;47.606;7.576;2023-05-19T02:26:27;3.33;;;2.05;;
10586;SDS011;5341;47.606;7.576;2023-05-19T02:28:54;4.85;;;2.13;;
10586;SDS011;5341;47.606;7.576;2023-05-19T02:31:23;6.07;;;2.33;;
10586;SDS011;5341;47.606;7.576;2023-05-19T02:33:51;3.80;;;2.60;;
10586;SDS011;5341;47.606;7.576;2023-05-19T02:36:19;4.57;;;2.70;;
10586;SDS011;5341;47.606;7.576;2023-05-19T02:38:46;3.35;;;2.50;;
10586;SDS011;5341;47.606;7.576;2023-05-19T02:41:14;3.03;;;2.58;;
10586;SDS011;5341;47.606;7.576;2023-05-19T02:43:41;5.90;;;2.53;;
10586;SDS011;5341;47.606;7.576;2023-05-19T02:46:09;4.50;;;2.50;;
10586;SDS011;5341;47.606;7.576;2023-05-19T02:48:36;3.10;;;2.22;;
10586;SDS011;5341;47.606;7.576;2023-05-19T02:51:05;5.40;;;2.40;;
10586;SDS011;5341;47.606;7.576;2023-05-19T02:53:32;3.88;;;2.30;;
10586;SDS011;5341;47.606;7.576;2023-05-19T02:55:59;3.95;;;2.70;;
10586;SDS011;5341;47.606;7.576;2023-05-19T02:58:27;3.55;;;2.50;;
10586;SDS011;5341;47.606;7.576;2023-05-19T03:00:55;6.63;;;2.50;;
10586;SDS011;5341;47.606;7.576;2023-05-19T03:03:22;4.15;;;2.30;;
10586;SDS011;5341;47.606;7.576;2023-05-19T03:05:50;4.25;;;2.40;;
10586;SDS011;5341;47.606;7.576;2023-05-19T03:08:19;3.53;;;2.55;;
10586;SDS011;5341;47.606;7.576;2023-05-19T03:10:47;3.97;;;2.50;;
10586;SDS011;5341;47.606;7.576;2023-05-19T03:13:14;4.28;;;2.42;;
10586;SDS011;5341;47.606;7.576;2023-05-19T03:15:42;3.00;;;2.30;;
10586;SDS011;5341;47.606;7.576;2023-05-19T03:18:10;3.97;;;2.35;;
10586;SDS011;5341;47.606;7.576;2023-05-19T03:20:37;4.20;;;2.45;;
10586;SDS011;5341;47.606;7.576;2023-05-19T03:23:06;3.38;;;2.65;;
10586;SDS011;5341;47.606;7.576;2023-05-19T03:25:36;4.45;;;2.65;;
10586;SDS011;5341;47.606;7.576;2023-05-19T03:28:03;4.00;;;2.40;;
10586;SDS011;5341;47.606;7.576;2023-05-19T03:30:31;6.05;;;2.70;;
10586;SDS011;5341;47.606;7.576;2023-05-19T03:33:07;4.13;;;2.60;;
10586;SDS011;5341;47.606;7.576;2023-05-19T03:35:34;4.38;;;2.72;;
10586;SDS011;5341;47.606;7.576;2023-05-19T03:38:02;5.03;;;2.50;;
10586;SDS011;5341;47.606;7.576;2023-05-19T03:40:30;4.15;;;2.33;;
10586;SDS011;5341;47.606;7.576;2023-05-19T03:43:05;4.18;;;2.38;;
10586;SDS011;5341;47.606;7.576;2023-05-19T03:45:39;3.50;;;2.60;;
10586;SDS011;5341;47.606;7.576;2023-05-19T03:48:26;4.43;;;2.65;;
10586;SDS011;5341;47.606;7.576;2023-05-19T03:51:12;3.75;;;2.58;;
10586;SDS011;5341;47.606;7.576;2023-05-19T03:53:39;3.42;;;2.33;;
10586;SDS011;5341;47.606;7.576;2023-05-19T03:56:07;4.90;;;2.70;;
10586;SDS011;5341;47.606;7.576;2023-05-19T03:58:40;4.70;;;2.85;;
10586;SDS011;5341;47.606;7.576;2023-05-19T04:01:07;2.90;;;2.42;;
10586;SDS011;5341;47.606;7.576;2023-05-19T04:03:35;3.95;;;2.70;;
10586;SDS011;5341;47.606;7.576;2023-05-19T04:06:02;3.80;;;2.70;;
10586;SDS011;5341;47.606;7.576;2023-05-19T04:08:30;5.75;;;2.53;;
10586;SDS011;5341;47.606;7.576;2023-05-19T04:10:58;4.55;;;2.80;;
10586;SDS011;5341;47.606;7.576;2023-05-19T04:13:25;5.88;;;2.53;;
10586;SDS011;5341;47.606;7.576;2023-05-19T04:15:54;4.63;;;2.88;;
10586;SDS011;5341;47.606;7.576;2023-05-19T04:18:23;5.28;;;2.70;;
10586;SDS011;5341;47.606;7.576;2023-05-19T04:20:50;4.53;;;2.90;;
10586;SDS011;5341;47.606;7.576;2023-05-19T04:23:18;4.55;;;2.90;;
10586;SDS011;5341;47.606;7.576;2023-05-19T04:25:45;5.15;;;2.72;;
10586;SDS011;5341;47.606;7.576;2023-05-19T04:28:14;6.85;;;3.15;;
10586;SDS011;5341;47.606;7.576;2023-05-19T04:30:42;6.32;;;2.97;;
10586;SDS011;5341;47.606;7.576;2023-05-19T04:33:12;7.93;;;3.47;;
10586;SDS011;5341;47.606;7.576;2023-05-19T04:35:40;5.78;;;3.10;;
10586;SDS011;5341;47.606;7.576;2023-05-19T04:38:10;6.05;;;3.30;;
10586;SDS011;5341;47.606;7.576;2023-05-19T04:40:39;7.05;;;3.28;;
10586;SDS011;5341;47.606;7.576;2023-05-19T04:43:07;8.68;;;3.60;;
10586;SDS011;5341;47.606;7.576;2023-05-19T04:45:36;9.18;;;3.30;;
10586;SDS011;5341;47.606;7.576;2023-05-19T04:48:09;8.50;;;3.25;;
10586;SDS011;5341;47.606;7.576;2023-05-19T04:50:38;6.00;;;3.40;;
10586;SDS011;5341;47.606;7.576;2023-05-19T04:53:07;8.48;;;3.38;;
10586;SDS011;5341;47.606;7.576;2023-05-19T04:55:36;7.03;;;3.83;;
10586;SDS011;5341;47.606;7.576;2023-05-19T04:58:05;9.15;;;3.60;;
10586;SDS011;5341;47.606;7.576;2023-05-19T05:00:33;7.28;;;3.40;;
10586;SDS011;5341;47.606;7.576;2023-05-19T05:03:06;10.95;;;3.47;;
10586;SDS011;5341;47.606;7.576;2023-05-19T05:05:35;7.07;;;3.00;;
10586;SDS011;5341;47.606;7.576;2023-05-19T05:08:05;5.82;;;3.22;;
10586;SDS011;5341;47.606;7.576;2023-05-19T05:10:37;7.80;;;3.42;;
10586;SDS011;5341;47.606;7.576;2023-05-19T05:13:04;7.18;;;3.30;;
10586;SDS011;5341;47.606;7.576;2023-05-19T05:15:32;6.13;;;2.97;;
10586;SDS011;5341;47.606;7.576;2023-05-19T05:18:01;7.38;;;3.17;;
10586;SDS011;5341;47.606;7.576;2023-05-19T05:20:29;6.80;;;3.47;;
10586;SDS011;5341;47.606;7.576;2023-05-19T05:22:59;6.25;;;3.20;;
10586;SDS011;5341;47.606;7.576;2023-05-19T05:25:30;7.80;;;3.72;;
10586;SDS011;5341;47.606;7.576;2023-05-19T05:27:58;7.53;;;3.55;;
10586;SDS011;5341;47.606;7.576;2023-05-19T05:30:30;7.10;;;3.83;;
10586;SDS011;5341;47.606;7.576;2023-05-19T05:32:59;5.90;;;3.22;;
10586;SDS011;5341;47.606;7.576;2023-05-19T05:35:33;5.00;;;3.10;;
10586;SDS011;5341;47.606;7.576;2023-05-19T05:38:02;8.95;;;3.60;;
10586;SDS011;5341;47.606;7.576;2023-05-19T05:40:31;7.28;;;3.60;;
10586;SDS011;5341;47.606;7.576;2023-05-19T05:42:59;6.53;;;3.30;;
10586;SDS011;5341;47.606;7.576;2023-05-19T05:45:30;6.40;;;3.50;;
10586;SDS011;5341;47.606;7.576;2023-05-19T05:47:59;9.05;;;3.17;;
10586;SDS011;5341;47.606;7.576;2023-05-19T05:50:28;6.55;;;3.55;;
10586;SDS011;5341;47.606;7.576;2023-05-19T05:52:57;7.47;;;3.60;;
10586;SDS011;5341;47.606;7.576;2023-05-19T05:55:28;7.13;;;3.33;;
10586;SDS011;5341;47.606;7.576;2023-05-19T05:58:00;8.52;;;3.67;;
10586;SDS011;5341;47.606;7.576;2023-05-19T06:00:28;6.10;;;3.63;;
10586;SDS011;5341;47.606;7.576;2023-05-19T06:03:00;7.43;;;3.97;;
10586;SDS011;5341;47.606;7.576;2023-05-19T06:05:35;8.32;;;4.15;;
10586;SDS011;5341;47.606;7.576;2023-05-19T06:08:03;6.93;;;3.60;;
10586;SDS011;5341;47.606;7.576;2023-05-19T06:10:31;8.15;;;3.63;;
10586;SDS011;5341;47.606;7.576;2023-05-19T06:13:01;6.55;;;3.80;;
10586;SDS011;5341;47.606;7.576;2023-05-19T06:15:29;8.88;;;3.72;;
10586;SDS011;5341;47.606;7.576;2023-05-19T06:18:07;5.97;;;3.53;;
10586;SDS011;5341;47.606;7.576;2023-05-19T06:20:35;7.85;;;3.78;;
10586;SDS011;5341;47.606;7.576;2023-05-19T06:23:02;7.30;;;3.53;;
10586;SDS011;5341;47.606;7.576;2023-05-19T06:25:29;6.78;;;3.45;;
10586;SDS011;5341;47.606;7.576;2023-05-19T06:27:57;6.05;;;3.42;;
10586;SDS011;5341;47.606;7.576;2023-05-19T06:30:26;6.35;;;3.70;;
10586;SDS011;5341;47.606;7.576;2023-05-19T06:33:08;6.22;;;3.40;;
10586;SDS011;5341;47.606;7.576;2023-05-19T06:35:36;6.15;;;3.40;;
10586;SDS011;5341;47.606;7.576;2023-05-19T06:38:04;6.45;;;3.28;;
10586;SDS011;5341;47.606;7.576;2023-05-19T06:40:31;5.63;;;3.85;;
10586;SDS011;5341;47.606;7.576;2023-05-19T06:42:59;8.82;;;3.53;;
10586;SDS011;5341;47.606;7.576;2023-05-19T06:45:35;9.93;;;3.78;;
10586;SDS011;5341;47.606;7.576;2023-05-19T06:48:03;5.95;;;3.72;;
10586;SDS011;5341;47.606;7.576;2023-05-19T06:50:32;6.70;;;3.40;;
10586;SDS011;5341;47.606;7.576;2023-05-19T06:53:00;6.78;;;3.30;;
10586;SDS011;5341;47.606;7.576;2023-05-19T06:55:28;6.78;;;3.85;;
10586;SDS011;5341;47.606;7.576;2023-05-19T06:57:56;7.80;;;3.80;;
10586;SDS011;5341;47.606;7.576;2023-05-19T07:00:23;5.32;;;3.10;;
10586;SDS011;5341;47.606;7.576;2023-05-19T07:02:53;9.88;;;3.90;;
10586;SDS011;5341;47.606;7.576;2023-05-19T07:05:21;7.20;;;3.60;;
10586;SDS011;5341;47.606;7.576;2023-05-19T07:07:53;6.38;;;3.28;;
10586;SDS011;5341;47.606;7.576;2023-05-19T07:10:25;7.18;;;3.33;;
10586;SDS011;5341;47.606;7.576;2023-05-19T07:12:53;6.95;;;3.35;;
10586;SDS011;5341;47.606;7.576;2023-05-19T07:15:24;6.70;;;3.13;;
10586;SDS011;5341;47.606;7.576;2023-05-19T07:17:53;7.75;;;3.47;;
10586;SDS011;5341;47.606;7.576;2023-05-19T07:20:21;5.30;;;2.80;;
10586;SDS011;5341;47.606;7.576;2023-05-19T07:22:48;4.90;;;3.50;;
10586;SDS011;5341;47.606;7.576;2023-05-19T07:25:16;9.40;;;3.80;;
10586;SDS011;5341;47.606;7.576;2023-05-19T07:27:45;6.35;;;3.35;;
10586;SDS011;5341;47.606;7.576;2023-05-19T07:30:13;8.10;;;3.80;;
10586;SDS011;5341;47.606;7.576;2023-05-19T07:32:41;6.40;;;3.60;;
10586;SDS011;5341;47.606;7.576;2023-05-19T07:35:10;5.55;;;3.10;;
10586;SDS011;5341;47.606;7.576;2023-05-19T07:37:38;7.32;;;3.78;;
10586;SDS011;5341;47.606;7.576;2023-05-19T07:40:07;7.07;;;3.63;;
10586;SDS011;5341;47.606;7.576;2023-05-19T07:42:38;8.90;;;3.17;;
10586;SDS011;5341;47.606;7.576;2023-05-19T07:45:07;6.00;;;3.40;;
10586;SDS011;5341;47.606;7.576;2023-05-19T07:47:35;7.47;;;4.35;;
10586;SDS011;5341;47.606;7.576;2023-05-19T07:50:03;6.97;;;3.42;;
10586;SDS011;5341;47.606;7.576;2023-05-19T07:52:33;8.98;;;3.63;;
10586;SDS011;5341;47.606;7.576;2023-05-19T07:55:00;5.97;;;3.08;;
10586;SDS011;5341;47.606;7.576;2023-05-19T07:57:28;6.82;;;3.50;;
10586;SDS011;5341;47.606;7.576;2023-05-19T07:59:56;5.95;;;3.80;;
10586;SDS011;5341;47.606;7.576;2023-05-19T08:02:24;6.88;;;3.47;;
10586;SDS011;5341;47.606;7.576;2023-05-19T08:04:51;7.82;;;3.42;;
10586;SDS011;5341;47.606;7.576;2023-05-19T08:07:19;6.38;;;3.35;;
10586;SDS011;5341;47.606;7.576;2023-05-19T08:09:48;4.60;;;3.13;;
10586;SDS011;5341;47.606;7.576;2023-05-19T08:12:15;6.65;;;2.88;;
10586;SDS011;5341;47.606;7.576;2023-05-19T08:14:43;5.05;;;2.90;;
10586;SDS011;5341;47.606;7.576;2023-05-19T08:17:12;7.72;;;3.42;;
10586;SDS011;5341;47.606;7.576;2023-05-19T08:19:40;6.07;;;3.55;;
10586;SDS011;5341;47.606;7.576;2023-05-19T08:22:07;5.97;;;3.13;;
10586;SDS011;5341;47.606;7.576;2023-05-19T08:24:35;7.18;;;3.35;;
10586;SDS011;5341;47.606;7.576;2023-05-19T08:27:05;5.57;;;2.85;;
10586;SDS011;5341;47.606;7.576;2023-05-19T08:29:32;5.22;;;3.22;;
10586;SDS011;5341;47.606;7.576;2023-05-19T08:32:00;8.70;;;3.40;;
10586;SDS011;5341;47.606;7.576;2023-05-19T08:34:29;6.38;;;3.15;;
10586;SDS011;5341;47.606;7.576;2023-05-19T08:36:57;5.63;;;3.33;;
10586;SDS011;5341;47.606;7.576;2023-05-19T08:39:24;7.28;;;3.50;;
10586;SDS011;5341;47.606;7.576;2023-05-19T08:41:52;4.40;;;2.95;;
10586;SDS011;5341;47.606;7.576;2023-05-19T08:44:21;5.10;;;3.05;;
10586;SDS011;5341;47.606;7.576;2023-05-19T08:46:49;4.20;;;2.72;;
10586;SDS011;5341;47.606;7.576;2023-05-19T08:49:22;5.53;;;3.38;;
10586;SDS011;5341;47.606;7.576;2023-05-19T08:51:54;8.65;;;3.63;;
10586;SDS011;5341;47.606;7.576;2023-05-19T08:54:28;7.20;;;3.20;;
10586;SDS011;5341;47.606;7.576;2023-05-19T08:57:00;4.63;;;2.88;;
10586;SDS011;5341;47.606;7.576;2023-05-19T08:59:31;5.30;;;2.92;;
10586;SDS011;5341;47.606;7.576;2023-05-19T09:01:59;7.13;;;3.83;;
10586;SDS011;5341;47.606;7.576;2023-05-19T09:04:26;6.82;;;3.33;;
10586;SDS011;5341;47.606;7.576;2023-05-19T09:06:54;8.10;;;3.60;;
10586;SDS011;5341;47.606;7.576;2023-05-19T09:09:23;4.68;;;3.45;;
10586;SDS011;5341;47.606;7.576;2023-05-19T09:11:50;8.35;;;3.40;;
10586;SDS011;5341;47.606;7.576;2023-05-19T09:14:18;8.77;;;3.50;;
10586;SDS011;5341;47.606;7.576;2023-05-19T09:16:47;4.90;;;3.10;;
10586;SDS011;5341;47.606;7.576;2023-05-19T09:19:17;5.93;;;3.35;;
10586;SDS011;5341;47.606;7.576;2023-05-19T09:21:45;12.60;;;3.25;;
10586;SDS011;5341;47.606;7.576;2023-05-19T09:24:12;4.70;;;3.20;;
10586;SDS011;5341;47.606;7.576;2023-05-19T09:26:40;5.82;;;3.40;;
10586;SDS011;5341;47.606;7.576;2023-05-19T09:29:11;6.13;;;3.42;;
10586;SDS011;5341;47.606;7.576;2023-05-19T09:31:39;5.95;;;3.20;;
10586;SDS011;5341;47.606;7.576;2023-05-19T09:34:15;8.20;;;3.10;;
10586;SDS011;5341;47.606;7.576;2023-05-19T09:36:42;6.63;;;3.33;;
10586;SDS011;5341;47.606;7.576;2023-05-19T09:39:12;6.28;;;3.22;;
10586;SDS011;5341;47.606;7.576;2023-05-19T09:41:40;6.18;;;2.90;;
10586;SDS011;5341;47.606;7.576;2023-05-19T09:44:11;5.72;;;3.28;;
10586;SDS011;5341;47.606;7.576;2023-05-19T09:46:46;4.80;;;2.88;;
10586;SDS011;5341;47.606;7.576;2023-05-19T09:49:19;7.85;;;3.72;;
10586;SDS011;5341;47.606;7.576;2023-05-19T09:51:51;6.07;;;3.25;;
10586;SDS011;5341;47.606;7.576;2023-05-19T09:54:20;6.28;;;2.72;;
10586;SDS011;5341;47.606;7.576;2023-05-19T09:56:55;4.38;;;2.47;;
10586;SDS011;5341;47.606;7.576;2023-05-19T09:59:24;3.38;;;2.25;;
10586;SDS011;5341;47.606;7.576;2023-05-19T10:01:53;3.80;;;2.50;;
10586;SDS011;5341;47.606;7.576;2023-05-19T10:04:22;2.83;;;2.50;;
10586;SDS011;5341;47.606;7.576;2023-05-19T10:06:51;4.35;;;2.13;;
10586;SDS011;5341;47.606;7.576;2023-05-19T10:09:20;4.13;;;2.30;;
10586;SDS011;5341;47.606;7.576;2023-05-19T10:11:50;4.30;;;2.25;;
10586;SDS011;5341;47.606;7.576;2023-05-19T10:14:21;5.97;;;2.38;;
10586;SDS011;5341;47.606;7.576;2023-05-19T10:16:50;5.07;;;2.75;;
10586;SDS011;5341;47.606;7.576;2023-05-19T10:19:19;4.25;;;2.72;;
10586;SDS011;5341;47.606;7.576;2023-05-19T10:21:55;4.00;;;2.65;;
10586;SDS011;5341;47.606;7.576;2023-05-19T10:24:26;4.70;;;3.00;;
10586;SDS011;5341;47.606;7.576;2023-05-19T10:26:55;4.43;;;2.30;;
10586;SDS011;5341;47.606;7.576;2023-05-19T10:29:29;4.05;;;2.50;;
10586;SDS011;5341;47.606;7.576;2023-05-19T10:32:00;3.92;;;2.58;;
10586;SDS011;5341;47.606;7.576;2023-05-19T10:34:42;3.65;;;2.45;;
10586;SDS011;5341;47.606;7.576;2023-05-19T10:37:30;6.00;;;2.70;;
10586;SDS011;5341;47.606;7.576;2023-05-19T10:40:09;3.92;;;2.70;;
10586;SDS011;5341;47.606;7.576;2023-05-19T10:42:39;4.63;;;2.55;;
10586;SDS011;5341;47.606;7.576;2023-05-19T10:45:16;5.40;;;2.60;;
10586;SDS011;5341;47.606;7.576;2023-05-19T10:47:46;4.72;;;2.28;;
10586;SDS011;5341;47.606;7.576;2023-05-19T10:50:16;5.75;;;2.70;;
10586;SDS011;5341;47.606;7.576;2023-05-19T10:52:44;6.63;;;2.80;;
10586;SDS011;5341;47.606;7.576;2023-05-19T10:58:12;4.93;;;2.42;;
10586;SDS011;5341;47.606;7.576;2023-05-19T11:00:40;3.75;;;2.67;;
10586;SDS011;5341;47.606;7.576;2023-05-19T11:03:12;4.10;;;2.83;;
10586;SDS011;5341;47.606;7.576;2023-05-19T11:05:41;5.40;;;3.00;;
10586;SDS011;5341;47.606;7.576;2023-05-19T11:08:12;3.72;;;2.70;;
10586;SDS011;5341;47.606;7.576;2023-05-19T11:10:42;4.38;;;2.50;;
10586;SDS011;5341;47.606;7.576;2023-05-19T11:13:17;6.80;;;3.10;;
10586;SDS011;5341;47.606;7.576;2023-05-19T11:15:46;3.47;;;2.67;;
10586;SDS011;5341;47.606;7.576;2023-05-19T11:18:14;7.10;;;3.00;;
10586;SDS011;5341;47.606;7.576;2023-05-19T11:20:43;5.05;;;2.70;;
10586;SDS011;5341;47.606;7.576;2023-05-19T11:23:25;4.95;;;2.85;;
10586;SDS011;5341;47.606;7.576;2023-05-19T11:25:52;5.80;;;3.20;;
10586;SDS011;5341;47.606;7.576;2023-05-19T11:28:21;5.13;;;2.80;;
10586;SDS011;5341;47.606;7.576;2023-05-19T11:30:52;5.47;;;3.10;;
10586;SDS011;5341;47.606;7.576;2023-05-19T11:33:22;5.35;;;3.05;;
10586;SDS011;5341;47.606;7.576;2023-05-19T11:35:52;4.03;;;2.55;;
10586;SDS011;5341;47.606;7.576;2023-05-19T11:38:22;3.55;;;2.58;;
10586;SDS011;5341;47.606;7.576;2023-05-19T11:40:52;4.22;;;2.35;;
10586;SDS011;5341;47.606;7.576;2023-05-19T11:43:21;4.03;;;2.50;;
10586;SDS011;5341;47.606;7.576;2023-05-19T11:45:50;4.82;;;2.72;;
10586;SDS011;5341;47.606;7.576;2023-05-19T11:48:19;6.22;;;2.80;;
10586;SDS011;5341;47.606;7.576;2023-05-19T11:50:47;4.78;;;2.63;;
10586;SDS011;5341;47.606;7.576;2023-05-19T11:53:14;5.03;;;2.78;;
10586;SDS011;5341;47.606;7.576;2023-05-19T11:55:44;3.88;;;2.70;;
10586;SDS011;5341;47.606;7.576;2023-05-19T11:58:14;4.10;;;2.42;;
10586;SDS011;5341;47.606;7.576;2023-05-19T12:00:42;3.67;;;2.83;;
10586;SDS011;5341;47.606;7.576;2023-05-19T12:03:12;3.90;;;2.75;;
10586;SDS011;5341;47.606;7.576;2023-05-19T12:05:41;4.40;;;2.80;;
10586;SDS011;5341;47.606;7.576;2023-05-19T12:08:10;5.93;;;2.85;;
10586;SDS011;5341;47.606;7.576;2023-05-19T12:10:37;5.03;;;2.58;;
10586;SDS011;5341;47.606;7.576;2023-05-19T12:13:06;4.93;;;2.95;;
10586;SDS011;5341;47.606;7.576;2023-05-19T12:15:35;4.18;;;2.80;;
10586;SDS011;5341;47.606;7.576;2023-05-19T12:18:03;5.40;;;3.00;;
10586;SDS011;5341;47.606;7.576;2023-05-19T12:20:30;4.05;;;2.50;;
10586;SDS011;5341;47.606;7.576;2023-05-19T12:23:00;5.78;;;2.78;;
10586;SDS011;5341;47.606;7.576;2023-05-19T12:25:28;4.32;;;2.88;;
10586;SDS011;5341;47.606;7.576;2023-05-19T12:27:56;3.88;;;2.65;;
10586;SDS011;5341;47.606;7.576;2023-05-19T12:30:25;4.50;;;2.80;;
10586;SDS011;5341;47.606;7.576;2023-05-19T12:32:54;3.78;;;2.65;;
10586;SDS011;5341;47.606;7.576;2023-05-19T12:35:26;4.82;;;2.80;;
10586;SDS011;5341;47.606;7.576;2023-05-19T12:37:54;5.22;;;2.97;;
10586;SDS011;5341;47.606;7.576;2023-05-19T12:40:22;4.72;;;2.38;;
10586;SDS011;5341;47.606;7.576;2023-05-19T12:42:50;4.55;;;2.78;;
10586;SDS011;5341;47.606;7.576;2023-05-19T12:45:22;6.30;;;2.78;;
10586;SDS011;5341;47.606;7.576;2023-05-19T12:47:50;7.35;;;2.75;;
10586;SDS011;5341;47.606;7.576;2023-05-19T12:50:19;6.05;;;2.88;;
10586;SDS011;5341;47.606;7.576;2023-05-19T12:52:47;3.90;;;2.63;;
10586;SDS011;5341;47.606;7.576;2023-05-19T12:55:16;6.60;;;3.00;;
10586;SDS011;5341;47.606;7.576;2023-05-19T12:57:47;6.22;;;2.85;;
10586;SDS011;5341;47.606;7.576;2023-05-19T13:00:16;7.18;;;2.88;;
10586;SDS011;5341;47.606;7.576;2023-05-19T13:02:55;5.38;;;2.92;;
10586;SDS011;5341;47.606;7.576;2023-05-19T13:05:27;4.53;;;3.15;;
10586;SDS011;5341;47.606;7.576;2023-05-19T13:07:56;4.85;;;2.63;;
10586;SDS011;5341;47.606;7.576;2023-05-19T13:10:24;4.75;;;2.55;;
10586;SDS011;5341;47.606;7.576;2023-05-19T13:12:52;5.40;;;2.75;;
10586;SDS011;5341;47.606;7.576;2023-05-19T13:15:21;4.03;;;2.58;;
10586;SDS011;5341;47.606;7.576;2023-05-19T13:17:50;5.45;;;2.70;;
10586;SDS011;5341;47.606;7.576;2023-05-19T13:20:18;3.33;;;2.50;;
10586;SDS011;5341;47.606;7.576;2023-05-19T13:22:48;4.13;;;2.65;;
10586;SDS011;5341;47.606;7.576;2023-05-19T13:25:16;4.93;;;2.55;;
10586;SDS011;5341;47.606;7.576;2023-05-19T13:27:43;4.88;;;2.83;;
10586;SDS011;5341;47.606;7.576;2023-05-19T13:30:11;4.82;;;2.65;;
10586;SDS011;5341;47.606;7.576;2023-05-19T13:32:38;7.88;;;2.80;;
10586;SDS011;5341;47.606;7.576;2023-05-19T13:35:06;2.97;;;2.47;;
10586;SDS011;5341;47.606;7.576;2023-05-19T13:37:35;4.50;;;2.65;;
10586;SDS011;5341;47.606;7.576;2023-05-19T13:40:05;4.30;;;2.83;;
10586;SDS011;5341;47.606;7.576;2023-05-19T13:42:33;4.40;;;2.80;;
10586;SDS011;5341;47.606;7.576;2023-05-19T13:45:00;3.83;;;2.72;;
10586;SDS011;5341;47.606;7.576;2023-05-19T13:47:28;3.00;;;2.60;;
10586;SDS011;5341;47.606;7.576;2023-05-19T13:49:55;4.93;;;2.80;;
10586;SDS011;5341;47.606;7.576;2023-05-19T13:52:23;4.22;;;2.70;;
10586;SDS011;5341;47.606;7.576;2023-05-19T13:54:50;4.60;;;3.20;;
10586;SDS011;5341;47.606;7.576;2023-05-19T13:57:20;6.53;;;3.10;;
10586;SDS011;5341;47.606;7.576;2023-05-19T13:59:49;6.43;;;3.00;;
10586;SDS011;5341;47.606;7.576;2023-05-19T14:02:17;7.13;;;3.38;;
10586;SDS011;5341;47.606;7.576;2023-05-19T14:04:45;5.53;;;2.78;;
10586;SDS011;5341;47.606;7.576;2023-05-19T14:07:12;4.15;;;2.70;;
10586;SDS011;5341;47.606;7.576;2023-05-19T14:09:41;8.02;;;3.00;;
10586;SDS011;5341;47.606;7.576;2023-05-19T14:12:08;3.20;;;2.63;;
10586;SDS011;5341;47.606;7.576;2023-05-19T14:14:38;4.68;;;2.90;;
10586;SDS011;5341;47.606;7.576;2023-05-19T14:17:05;6.47;;;3.00;;
10586;SDS011;5341;47.606;7.576;2023-05-19T14:19:32;7.68;;;3.40;;
10586;SDS011;5341;47.606;7.576;2023-05-19T14:21:59;6.43;;;3.17;;
10586;SDS011;5341;47.606;7.576;2023-05-19T14:24:27;4.95;;;3.00;;
10586;SDS011;5341;47.606;7.576;2023-05-19T14:26:54;5.32;;;3.50;;
10586;SDS011;5341;47.606;7.576;2023-05-19T14:29:21;6.00;;;3.60;;
10586;SDS011;5341;47.606;7.576;2023-05-19T14:31:50;6.82;;;3.38;;
10586;SDS011;5341;47.606;7.576;2023-05-19T14:34:19;5.13;;;3.35;;
10586;SDS011;5341;47.606;7.576;2023-05-19T14:36:47;6.35;;;3.65;;
10586;SDS011;5341;47.606;7.576;2023-05-19T14:39:14;6.47;;;2.97;;
10586;SDS011;5341;47.606;7.576;2023-05-19T14:41:42;4.00;;;2.90;;
10586;SDS011;5341;47.606;7.576;2023-05-19T14:44:09;6.20;;;3.10;;
10586;SDS011;5341;47.606;7.576;2023-05-19T14:46:36;4.90;;;3.17;;
10586;SDS011;5341;47.606;7.576;2023-05-19T14:49:05;4.35;;;2.70;;
10586;SDS011;5341;47.606;7.576;2023-05-19T14:51:32;7.05;;;3.85;;
10586;SDS011;5341;47.606;7.576;2023-05-19T14:54:00;5.43;;;2.80;;
10586;SDS011;5341;47.606;7.576;2023-05-19T14:56:27;8.23;;;4.18;;
10586;SDS011;5341;47.606;7.576;2023-05-19T14:58:55;6.38;;;3.90;;
10586;SDS011;5341;47.606;7.576;2023-05-19T15:01:22;9.13;;;5.35;;
10586;SDS011;5341;47.606;7.576;2023-05-19T15:03:49;8.15;;;4.18;;
10586;SDS011;5341;47.606;7.576;2023-05-19T15:06:18;8.30;;;3.85;;
10586;SDS011;5341;47.606;7.576;2023-05-19T15:08:45;8.13;;;3.85;;
10586;SDS011;5341;47.606;7.576;2023-05-19T15:11:12;7.72;;;3.25;;
10586;SDS011;5341;47.606;7.576;2023-05-19T15:13:40;7.38;;;3.25;;
10586;SDS011;5341;47.606;7.576;2023-05-19T15:16:07;5.78;;;3.55;;
10586;SDS011;5341;47.606;7.576;2023-05-19T15:18:34;5.25;;;3.78;;